Time;durP1;ratioP1;P1;durP2;ratioP2;P2;SDS_P1;SDS_P2;PMS_P1;PMS_P2;Temp;Humidity;BMP_temperature;BMP_pressure;BME280_temperature;BME280_humidity;BME280_pressure;Samples;Min_cycle;Max_cycle;Signal;HPM_P1;HPM_P2
2022/07/15 00:02:21;;;;;;;3.95;0.00;;;13.40;99.90;;;;;;5074406;28;20052;-76
2022/07/15 00:04:46;;;;;;;4.20;0.22;;;12.90;99.90;;;;;;5074397;28;20085;-76
2022/07/15 00:07:13;;;;;;;8.43;0.85;;;12.90;99.90;;;;;;5074373;28;20024;-77
2022/07/15 00:12:22;;;;;;;1.20;0.13;;;12.80;99.90;;;;;;5074635;28;20594;-76
2022/07/15 00:14:48;;;;;;;3.10;0.10;;;12.80;99.90;;;;;;5072773;28;20033;-76
2022/07/15 00:17:14;;;;;;;1.55;0.20;;;12.90;99.90;;;;;;5074350;28;20047;-76
2022/07/15 00:19:40;;;;;;;3.40;0.10;;;12.70;99.90;;;;;;5074459;28;20024;-78
2022/07/15 00:22:06;;;;;;;1.98;0.10;;;12.70;99.90;;;;;;5074384;28;20013;-78
2022/07/15 00:24:31;;;;;;;3.40;0.10;;;12.60;99.90;;;;;;5074334;28;20012;-78
2022/07/15 00:26:57;;;;;;;3.08;0.10;;;13.10;99.90;;;;;;5073614;28;20032;-78
2022/07/15 00:29:23;;;;;;;1.65;0.05;;;12.70;99.90;;;;;;5074132;28;20390;-78
2022/07/15 00:31:49;;;;;;;1.10;0.00;;;12.70;99.90;;;;;;5075360;28;20032;-78
2022/07/15 00:34:16;;;;;;;1.60;0.15;;;12.60;99.90;;;;;;5074220;28;20108;-78
2022/07/15 00:36:42;;;;;;;5.10;0.45;;;12.60;99.90;;;;;;5073925;28;20016;-78
2022/07/15 00:39:09;;;;;;;2.85;0.10;;;13.80;99.90;;;;;;5074090;28;20084;-78
2022/07/15 00:41:39;;;;;;;5.53;0.40;;;12.60;99.90;;;;;;5075204;28;20078;-78
2022/07/15 00:44:05;;;;;;;3.78;0.10;;;13.80;99.90;;;;;;5075457;28;20025;-78
2022/07/15 00:46:31;;;;;;;2.72;0.28;;;12.60;99.90;;;;;;5075837;28;20074;-78
2022/07/15 00:48:58;;;;;;;3.25;0.10;;;12.50;99.90;;;;;;5074595;28;20024;-78
2022/07/15 00:51:24;;;;;;;3.42;0.20;;;12.60;99.90;;;;;;5074423;28;20392;-78
2022/07/15 00:53:51;;;;;;;1.67;0.10;;;12.50;99.90;;;;;;5075765;28;20072;-78
2022/07/15 00:56:21;;;;;;;3.50;0.10;;;12.50;99.90;;;;;;5074152;28;20028;-78
2022/07/15 00:58:48;;;;;;;2.65;0.00;;;12.40;99.90;;;;;;5073791;28;20458;-78
2022/07/15 01:01:18;;;;;;;1.58;0.28;;;12.60;99.90;;;;;;5075361;28;20025;-78
2022/07/15 01:03:45;;;;;;;2.20;0.00;;;13.10;99.90;;;;;;5074745;28;20032;-78
2022/07/15 01:06:11;;;;;;;3.08;0.10;;;12.40;99.90;;;;;;5074188;28;20040;-78
2022/07/15 01:08:37;;;;;;;5.20;0.10;;;14.00;99.90;;;;;;5073100;28;20020;-78
2022/07/15 01:11:02;;;;;;;5.35;0.10;;;13.30;99.90;;;;;;5076379;28;20404;-78
2022/07/15 01:13:28;;;;;;;1.40;0.00;;;12.30;99.90;;;;;;5073699;28;20017;-78
2022/07/15 01:15:54;;;;;;;3.42;0.47;;;12.30;99.90;;;;;;5073826;28;20049;-78
2022/07/15 01:18:19;;;;;;;0.82;0.00;;;12.30;99.90;;;;;;5074964;28;20020;-78
2022/07/15 01:20:47;;;;;;;7.07;0.50;;;12.90;99.90;;;;;;5073940;28;20032;-78
2022/07/15 01:23:14;;;;;;;1.77;0.10;;;12.20;99.90;;;;;;5073833;28;20012;-78
2022/07/15 01:25:39;;;;;;;4.80;0.63;;;12.20;99.90;;;;;;5075321;28;20044;-78
2022/07/15 01:28:07;;;;;;;4.18;0.57;;;12.10;99.90;;;;;;5073719;28;20028;-78
2022/07/15 01:30:32;;;;;;;4.68;0.13;;;12.20;99.90;;;;;;5073620;28;20016;-78
2022/07/15 01:32:58;;;;;;;3.13;0.00;;;12.10;99.90;;;;;;5073890;28;20036;-78
2022/07/15 01:35:24;;;;;;;2.60;0.65;;;12.10;99.90;;;;;;5075067;28;20024;-78
2022/07/15 01:37:49;;;;;;;1.00;0.10;;;12.30;99.90;;;;;;5073828;28;20366;-78
2022/07/15 01:40:15;;;;;;;2.15;0.00;;;12.00;99.90;;;;;;5074825;28;20020;-78
2022/07/15 01:42:41;;;;;;;3.38;0.10;;;12.10;99.90;;;;;;5073915;28;20020;-78
2022/07/15 01:45:08;;;;;;;5.82;0.20;;;12.00;99.90;;;;;;5074812;28;20145;-78
2022/07/15 01:47:40;;;;;;;1.92;0.10;;;12.00;99.90;;;;;;5073449;28;20441;-78
2022/07/15 01:50:06;;;;;;;4.13;0.50;;;12.00;99.90;;;;;;5073109;28;20108;-78
2022/07/15 01:52:32;;;;;;;0.70;0.03;;;12.00;99.90;;;;;;5072675;28;20482;-78
2022/07/15 01:54:57;;;;;;;1.88;0.00;;;12.00;99.90;;;;;;5074088;28;20023;-78
2022/07/15 01:57:23;;;;;;;3.38;0.00;;;11.90;99.90;;;;;;5074357;28;20469;-78
2022/07/15 01:59:49;;;;;;;2.10;0.10;;;11.90;99.90;;;;;;5073868;28;20482;-78
2022/07/15 02:02:15;;;;;;;1.42;0.15;;;11.90;99.90;;;;;;5073776;28;20466;-78
2022/07/15 02:04:40;;;;;;;2.03;0.30;;;12.00;99.90;;;;;;5072275;28;20032;-78
2022/07/15 02:07:06;;;;;;;3.72;0.20;;;11.90;99.90;;;;;;5073874;28;20029;-78
2022/07/15 02:09:31;;;;;;;1.48;0.00;;;11.90;99.90;;;;;;5073441;28;20055;-78
2022/07/15 02:11:57;;;;;;;2.00;0.20;;;11.90;99.90;;;;;;5073853;28;20035;-78
2022/07/15 02:14:22;;;;;;;2.47;0.17;;;11.90;99.90;;;;;;5072300;28;20021;-78
2022/07/15 02:16:48;;;;;;;4.28;0.00;;;11.90;99.90;;;;;;5073561;28;20025;-78
2022/07/15 02:19:14;;;;;;;3.67;0.10;;;11.90;99.90;;;;;;5074055;28;20047;-78
2022/07/15 02:21:40;;;;;;;2.28;0.00;;;11.90;99.90;;;;;;5076575;28;20112;-78
2022/07/15 02:24:06;;;;;;;3.22;0.00;;;12.00;99.90;;;;;;5077906;28;20044;-78
2022/07/15 02:26:31;;;;;;;4.75;0.50;;;11.90;99.90;;;;;;5077513;28;20091;-78
2022/07/15 02:28:57;;;;;;;2.92;0.10;;;11.80;99.90;;;;;;5076295;28;20024;-78
2022/07/15 02:31:23;;;;;;;2.80;0.03;;;14.10;99.90;;;;;;5078209;28;20017;-78
2022/07/15 02:33:50;;;;;;;3.35;0.13;;;11.80;99.90;;;;;;5076106;28;20008;-78
2022/07/15 02:36:16;;;;;;;2.20;0.20;;;12.00;99.90;;;;;;5075776;28;20101;-78
2022/07/15 02:38:42;;;;;;;4.47;0.25;;;11.80;99.90;;;;;;5075800;28;20499;-78
2022/07/15 02:41:08;;;;;;;3.30;0.15;;;11.80;99.90;;;;;;5077606;28;20039;-78
2022/07/15 02:43:34;;;;;;;2.78;0.32;;;13.70;99.90;;;;;;5076215;28;20017;-78
2022/07/15 02:46:00;;;;;;;1.10;0.00;;;11.80;99.90;;;;;;5075804;28;20389;-78
2022/07/15 02:48:26;;;;;;;1.30;0.00;;;11.80;99.90;;;;;;5075543;28;20111;-78
2022/07/15 02:50:51;;;;;;;3.92;0.00;;;11.80;99.90;;;;;;5076772;28;20457;-78
2022/07/15 02:53:18;;;;;;;6.60;0.30;;;13.30;99.90;;;;;;5075697;28;20032;-78
2022/07/15 02:55:44;;;;;;;0.68;0.00;;;11.70;99.90;;;;;;5075832;28;20021;-78
2022/07/15 02:58:09;;;;;;;1.95;0.30;;;11.70;99.90;;;;;;5075940;28;20032;-78
2022/07/15 03:00:35;;;;;;;1.13;0.28;;;11.70;99.90;;;;;;5075861;28;20078;-78
2022/07/15 03:03:00;;;;;;;2.33;0.10;;;11.70;99.90;;;;;;5074980;28;20017;-78
2022/07/15 03:05:26;;;;;;;4.38;0.35;;;11.70;99.90;;;;;;5074852;28;20524;-78
2022/07/15 03:07:52;;;;;;;2.63;0.00;;;11.70;99.90;;;;;;5076062;28;20158;-78
2022/07/15 03:10:18;;;;;;;3.45;0.15;;;11.70;99.90;;;;;;5075942;28;20401;-78
2022/07/15 03:12:43;;;;;;;3.47;0.10;;;13.40;99.90;;;;;;5076286;28;20028;-78
2022/07/15 03:15:11;;;;;;;2.38;0.10;;;11.60;99.90;;;;;;5076285;28;20025;-78
2022/07/15 03:17:37;;;;;;;5.63;0.68;;;11.60;99.90;;;;;;5075126;28;20029;-78
2022/07/15 03:20:03;;;;;;;4.38;0.00;;;11.60;99.90;;;;;;5074840;28;20027;-78
2022/07/15 03:22:29;;;;;;;0.65;0.00;;;11.60;99.90;;;;;;5077223;28;20025;-78
2022/07/15 03:24:55;;;;;;;3.80;0.38;;;11.50;99.90;;;;;;5076682;28;20028;-78
2022/07/15 03:27:21;;;;;;;3.22;0.10;;;11.50;99.90;;;;;;5077117;28;20024;-78
2022/07/15 03:29:46;;;;;;;3.10;0.20;;;11.50;99.90;;;;;;5075172;28;20039;-78
2022/07/15 03:32:15;;;;;;;4.50;0.28;;;11.50;99.90;;;;;;5076057;28;20492;-78
2022/07/15 03:34:41;;;;;;;5.93;0.20;;;12.00;99.90;;;;;;5075556;28;20013;-78
2022/07/15 03:37:07;;;;;;;3.42;0.10;;;13.30;99.90;;;;;;5076348;28;20035;-78
2022/07/15 03:39:32;;;;;;;2.67;0.30;;;11.50;99.90;;;;;;5076430;28;20033;-78
2022/07/15 03:41:58;;;;;;;3.53;0.55;;;11.40;99.90;;;;;;5076778;28;20024;-78
2022/07/15 03:44:24;;;;;;;1.48;0.10;;;13.20;99.90;;;;;;5076184;28;20028;-78
2022/07/15 03:46:49;;;;;;;2.45;0.38;;;11.50;99.90;;;;;;5075262;28;20028;-78
2022/07/15 03:49:16;;;;;;;1.60;0.17;;;11.40;99.90;;;;;;5076007;28;20020;-78
2022/07/15 03:51:42;;;;;;;3.50;0.10;;;11.50;99.90;;;;;;5074121;28;20025;-78
2022/07/15 03:54:08;;;;;;;0.77;0.00;;;11.50;99.90;;;;;;5075691;28;20032;-78
2022/07/15 03:56:34;;;;;;;3.50;0.00;;;11.50;99.90;;;;;;5073889;28;20028;-78
2022/07/15 03:58:59;;;;;;;2.50;0.10;;;11.50;99.90;;;;;;5073497;28;20120;-78
2022/07/15 04:01:25;;;;;;;1.45;0.10;;;11.40;99.90;;;;;;5073531;28;20107;-78
2022/07/15 04:03:52;;;;;;;1.67;0.00;;;12.10;99.90;;;;;;5074265;28;20031;-78
2022/07/15 04:06:20;;;;;;;4.05;0.00;;;11.40;99.90;;;;;;5073663;28;20024;-78
2022/07/15 04:08:46;;;;;;;3.03;0.68;;;11.50;99.90;;;;;;5073584;28;20024;-78
2022/07/15 04:11:12;;;;;;;5.35;0.45;;;11.50;99.90;;;;;;5075021;28;20048;-78
2022/07/15 04:13:38;;;;;;;5.72;0.30;;;11.50;99.90;;;;;;5075105;28;20396;-78
2022/07/15 04:16:05;;;;;;;4.32;0.57;;;11.50;99.90;;;;;;5073915;28;20394;-78
2022/07/15 04:18:31;;;;;;;4.65;0.22;;;11.60;99.90;;;;;;5073867;28;20020;-78
2022/07/15 04:20:57;;;;;;;0.80;0.00;;;11.70;99.90;;;;;;5073940;28;20031;-78
2022/07/15 04:23:24;;;;;;;1.73;0.20;;;12.70;99.90;;;;;;5075229;28;20031;-78
2022/07/15 04:25:51;;;;;;;3.95;0.55;;;12.00;99.90;;;;;;5074294;28;20459;-78
2022/07/15 04:28:18;;;;;;;2.30;0.08;;;11.90;99.90;;;;;;5074214;28;20028;-78
2022/07/15 04:30:43;;;;;;;2.50;0.00;;;13.70;99.90;;;;;;5074351;28;20089;-78
2022/07/15 04:33:09;;;;;;;5.35;0.15;;;12.00;99.90;;;;;;5075975;28;20017;-78
2022/07/15 04:35:35;;;;;;;3.10;0.30;;;12.10;99.90;;;;;;5075407;28;20423;-78
2022/07/15 04:38:00;;;;;;;2.38;0.10;;;12.70;99.90;;;;;;5075958;28;20065;-78
2022/07/15 04:40:26;;;;;;;3.55;0.55;;;12.20;99.90;;;;;;5075464;28;20098;-78
2022/07/15 04:42:51;;;;;;;4.82;0.43;;;13.30;99.90;;;;;;5074609;28;20020;-78
2022/07/15 04:45:17;;;;;;;6.25;0.95;;;12.40;99.90;;;;;;5075159;28;20028;-78
2022/07/15 04:47:42;;;;;;;1.55;0.08;;;12.50;99.90;;;;;;5073669;28;20029;-78
2022/07/15 04:52:53;;;;;;;5.53;0.30;;;13.60;99.90;;;;;;5075714;28;20048;-78
2022/07/15 04:55:18;;;;;;;2.65;0.15;;;12.80;99.90;;;;;;5073814;28;20025;-78
2022/07/15 04:57:44;;;;;;;5.10;0.35;;;12.90;99.90;;;;;;5075324;28;20020;-78
2022/07/15 05:00:10;;;;;;;2.75;0.00;;;13.20;99.90;;;;;;5075150;28;20024;-78
2022/07/15 05:02:36;;;;;;;2.47;0.00;;;13.10;99.90;;;;;;5073370;28;20024;-76
2022/07/15 05:05:02;;;;;;;2.70;0.00;;;13.20;99.90;;;;;;5073703;28;20401;-76
2022/07/15 05:07:28;;;;;;;1.30;0.10;;;13.30;99.90;;;;;;5078626;28;20029;-80
2022/07/15 05:09:53;;;;;;;4.88;0.00;;;13.40;99.90;;;;;;5077410;28;20028;-82
2022/07/15 05:12:19;;;;;;;3.20;0.30;;;13.60;99.90;;;;;;5078050;28;20080;-80
2022/07/15 05:14:45;;;;;;;3.88;0.32;;;13.70;99.90;;;;;;5078308;28;20052;-82
2022/07/15 05:17:10;;;;;;;1.08;0.00;;;15.50;99.90;;;;;;5077162;28;20023;-82
2022/07/15 05:19:36;;;;;;;3.13;0.35;;;13.90;99.90;;;;;;5077016;28;20381;-82
2022/07/15 05:22:02;;;;;;;2.22;0.08;;;15.30;99.90;;;;;;5077723;28;20021;-82
2022/07/15 05:24:27;;;;;;;5.30;0.40;;;14.20;99.90;;;;;;5077319;28;20474;-82
2022/07/15 05:26:53;;;;;;;2.22;0.00;;;14.30;99.90;;;;;;5076202;28;20024;-82
2022/07/15 05:29:21;;;;;;;1.75;0.00;;;14.40;99.90;;;;;;5076385;28;20024;-82
2022/07/15 05:31:48;;;;;;;4.38;0.00;;;14.50;99.90;;;;;;5075722;28;20108;-82
2022/07/15 05:34:14;;;;;;;0.63;0.00;;;15.50;99.90;;;;;;5077492;28;20088;-82
2022/07/15 05:36:39;;;;;;;3.78;0.00;;;16.30;99.90;;;;;;5077081;28;20423;-82
2022/07/15 05:39:05;;;;;;;2.63;0.15;;;14.90;99.90;;;;;;5075601;28;20017;-82
2022/07/15 05:41:33;;;;;;;1.30;0.00;;;16.60;99.90;;;;;;5075282;28;20031;-81
2022/07/15 05:44:00;;;;;;;3.72;0.65;;;15.10;99.90;;;;;;5076363;28;20017;-82
2022/07/15 05:46:26;;;;;;;1.77;0.10;;;15.30;99.90;;;;;;5076399;28;20036;-81
2022/07/15 05:48:51;;;;;;;5.07;0.32;;;17.20;99.90;;;;;;5074992;28;20028;-82
2022/07/15 05:51:17;;;;;;;4.50;0.30;;;15.50;99.90;;;;;;5075784;28;20085;-82
2022/07/15 05:53:43;;;;;;;0.52;0.03;;;15.60;99.90;;;;;;5078074;28;20385;-82
2022/07/15 05:56:08;;;;;;;2.72;0.00;;;18.20;99.90;;;;;;5079207;28;20020;-82
2022/07/15 05:58:35;;;;;;;6.65;0.57;;;17.60;99.90;;;;;;5080303;28;20039;-82
2022/07/15 06:01:00;;;;;;;3.42;0.30;;;15.80;99.90;;;;;;5079491;28;20088;-82
2022/07/15 06:03:26;;;;;;;2.15;0.15;;;16.10;99.90;;;;;;5079055;28;20029;-82
2022/07/15 06:05:53;;;;;;;10.77;0.13;;;16.10;99.90;;;;;;5078972;28;20394;-82
2022/07/15 06:08:19;;;;;;;2.88;0.00;;;16.10;99.90;;;;;;5079670;28;20120;-82
2022/07/15 06:10:45;;;;;;;1.38;0.00;;;16.90;99.90;;;;;;5078603;28;20059;-82
2022/07/15 06:13:11;;;;;;;1.35;0.10;;;16.40;99.90;;;;;;5078651;28;20493;-81
2022/07/15 06:15:37;;;;;;;2.42;0.00;;;16.50;99.90;;;;;;5078737;28;20036;-81
2022/07/15 06:18:02;;;;;;;1.00;0.10;;;17.90;99.90;;;;;;5078370;28;20028;-81
2022/07/15 06:20:28;;;;;;;1.83;0.30;;;17.50;99.90;;;;;;5078262;28;20051;-81
2022/07/15 06:22:54;;;;;;;1.48;0.00;;;16.70;99.90;;;;;;5077999;28;20050;-81
2022/07/15 06:25:20;;;;;;;0.60;0.00;;;16.70;99.90;;;;;;5078346;28;20025;-81
2022/07/15 06:27:46;;;;;;;1.38;0.00;;;16.80;99.90;;;;;;5079760;28;20044;-81
2022/07/15 06:30:13;;;;;;;2.63;0.00;;;16.90;99.90;;;;;;5078498;28;20029;-81
2022/07/15 06:32:38;;;;;;;2.20;0.00;;;17.00;99.90;;;;;;5080074;28;20024;-81
2022/07/15 06:35:05;;;;;;;3.28;0.00;;;17.90;99.90;;;;;;5078939;28;20027;-81
2022/07/15 06:37:30;;;;;;;3.17;0.00;;;17.10;99.90;;;;;;5079581;28;20162;-81
2022/07/15 06:39:56;;;;;;;2.65;0.00;;;17.20;99.90;;;;;;5079491;28;20060;-82
2022/07/15 06:42:22;;;;;;;6.60;1.15;;;17.20;99.90;;;;;;5078031;28;20077;-81
2022/07/15 06:44:48;;;;;;;2.50;0.30;;;17.40;99.90;;;;;;5077813;28;20031;-81
2022/07/15 06:47:14;;;;;;;5.05;0.10;;;17.40;99.90;;;;;;5078741;28;20485;-81
2022/07/15 06:49:40;;;;;;;1.33;0.10;;;19.10;99.90;;;;;;5078271;28;20035;-81
2022/07/15 06:52:06;;;;;;;1.35;0.00;;;17.70;99.90;;;;;;5080167;28;20021;-80
2022/07/15 06:54:31;;;;;;;6.20;0.00;;;17.80;99.90;;;;;;5079663;28;20036;-80
2022/07/15 06:56:58;;;;;;;5.97;0.65;;;18.00;99.90;;;;;;5080669;28;20378;-80
2022/07/15 06:59:23;;;;;;;1.80;0.28;;;18.10;99.90;;;;;;5078577;28;20033;-80
2022/07/15 07:01:50;;;;;;;2.05;0.10;;;18.50;99.90;;;;;;5079059;28;20032;-80
2022/07/15 07:04:15;;;;;;;4.18;0.05;;;18.30;99.90;;;;;;5082336;22;20033;-80
2022/07/15 07:06:41;;;;;;;1.65;0.00;;;20.70;99.90;;;;;;5060230;28;20088;-81
2022/07/15 07:09:07;;;;;;;4.15;0.00;;;20.00;99.90;;;;;;5060589;28;20049;-80
2022/07/15 07:11:32;;;;;;;3.25;0.00;;;20.20;99.90;;;;;;5061025;28;20432;-80
2022/07/15 07:13:59;;;;;;;0.93;0.00;;;18.50;99.90;;;;;;5058872;28;20040;-76
2022/07/15 07:16:25;;;;;;;4.82;0.10;;;18.50;99.90;;;;;;5054290;28;20032;-76
2022/07/15 07:18:51;;;;;;;2.33;0.25;;;18.60;99.90;;;;;;5054061;28;20074;-76
2022/07/15 07:21:17;;;;;;;3.35;0.00;;;18.70;99.90;;;;;;5054098;28;20162;-76
2022/07/15 07:23:44;;;;;;;2.10;0.10;;;18.90;99.90;;;;;;5054563;28;20029;-77
2022/07/15 07:26:14;;;;;;;1.83;0.10;;;18.90;99.90;;;;;;5055139;28;20025;-77
2022/07/15 07:28:40;;;;;;;1.17;0.00;;;19.00;99.90;;;;;;5055385;28;20021;-77
2022/07/15 07:31:07;;;;;;;3.13;0.00;;;19.20;99.90;;;;;;5055200;28;20024;-77
2022/07/15 07:33:33;;;;;;;3.38;0.00;;;19.20;99.90;;;;;;5055007;28;20032;-76
2022/07/15 07:35:59;;;;;;;2.60;0.05;;;19.30;99.90;;;;;;5054048;28;20116;-76
2022/07/15 07:38:24;;;;;;;1.10;0.00;;;19.20;99.90;;;;;;5055048;28;20435;-76
2022/07/15 07:40:50;;;;;;;2.90;0.00;;;19.30;99.90;;;;;;5055034;28;20470;-76
2022/07/15 07:43:17;;;;;;;1.40;0.00;;;19.40;99.90;;;;;;5054939;28;20024;-77
2022/07/15 07:45:43;;;;;;;1.17;0.00;;;19.60;99.90;;;;;;5053595;28;20063;-76
2022/07/15 07:48:09;;;;;;;0.50;0.00;;;19.70;99.90;;;;;;5054827;28;20500;-76
2022/07/15 07:50:35;;;;;;;4.07;0.03;;;19.90;99.90;;;;;;5053255;28;20018;-77
2022/07/15 07:53:00;;;;;;;1.05;0.00;;;20.00;99.90;;;;;;5053425;28;20025;-76
2022/07/15 07:55:34;;;;;;;0.75;0.00;;;20.10;99.90;;;;;;5054713;28;20523;-77
2022/07/15 07:58:00;;;;;;;1.10;0.00;;;20.00;99.90;;;;;;5054622;28;20052;-77
2022/07/15 08:00:27;;;;;;;1.42;0.17;;;19.90;99.90;;;;;;5053153;28;20013;-77
2022/07/15 08:02:54;;;;;;;1.92;0.00;;;19.70;99.90;;;;;;5054887;28;20477;-77
2022/07/15 08:05:20;;;;;;;0.88;0.10;;;19.70;99.90;;;;;;5054330;28;20033;-77
2022/07/15 08:07:46;;;;;;;3.58;0.00;;;19.60;96.80;;;;;;5054529;28;20048;-77
2022/07/15 08:10:13;;;;;;;0.52;0.03;;;19.70;99.80;;;;;;5053348;28;20048;-77
2022/07/15 08:12:39;;;;;;;1.25;0.00;;;19.70;97.50;;;;;;5053454;28;20495;-77
2022/07/15 08:15:08;;;;;;;3.30;0.08;;;19.90;98.80;;;;;;5054316;28;20116;-73
2022/07/15 08:17:34;;;;;;;7.25;0.20;;;20.10;97.20;;;;;;5054681;28;20021;-73
2022/07/15 08:20:00;;;;;;;2.55;0.00;;;20.20;97.00;;;;;;5054194;28;20059;-73
2022/07/15 08:22:26;;;;;;;1.35;0.00;;;20.40;98.50;;;;;;5054438;28;20046;-73
2022/07/15 08:24:56;;;;;;;2.00;0.05;;;20.70;97.10;;;;;;5054241;28;20470;-73
2022/07/15 08:27:21;;;;;;;2.13;0.05;;;20.90;92.90;;;;;;5053938;28;20377;-75
2022/07/15 08:29:47;;;;;;;2.15;0.00;;;20.70;93.90;;;;;;5053991;28;20025;-74
2022/07/15 08:32:12;;;;;;;1.92;0.00;;;20.90;94.80;;;;;;5054536;28;20149;-74
2022/07/15 08:34:40;;;;;;;0.28;0.00;;;21.00;92.40;;;;;;5054158;28;20367;-77
2022/07/15 08:37:06;;;;;;;1.88;0.00;;;21.10;90.60;;;;;;5052685;28;20389;-76
2022/07/15 08:39:31;;;;;;;1.42;0.00;;;21.20;91.90;;;;;;5053824;28;20029;-73
2022/07/15 08:41:57;;;;;;;0.30;0.00;;;21.30;91.40;;;;;;5054039;28;20025;-74
2022/07/15 08:44:23;;;;;;;2.25;0.00;;;21.40;91.80;;;;;;5053789;28;20032;-74
2022/07/15 08:46:49;;;;;;;1.08;0.00;;;21.40;91.20;;;;;;5053592;28;20078;-73
2022/07/15 08:49:17;;;;;;;1.08;0.00;;;21.50;90.90;;;;;;5053908;28;20028;-74
2022/07/15 08:51:47;;;;;;;1.17;0.13;;;21.50;91.70;;;;;;5053964;28;20021;-74
2022/07/15 08:54:14;;;;;;;1.95;0.00;;;21.30;88.10;;;;;;5052317;28;20021;-74
2022/07/15 08:56:42;;;;;;;0.20;0.00;;;21.30;89.90;;;;;;5053803;28;20049;-74
2022/07/15 08:59:08;;;;;;;0.32;0.05;;;21.10;86.10;;;;;;5053795;28;20106;-74
2022/07/15 09:01:42;;;;;;;0.82;0.00;;;20.90;88.10;;;;;;5053568;28;20017;-74
2022/07/15 09:04:07;;;;;;;0.13;0.00;;;20.80;89.50;;;;;;5053396;28;20025;-75
2022/07/15 09:06:34;;;;;;;0.65;0.00;;;21.00;89.40;;;;;;5053557;28;20040;-76
2022/07/15 09:09:24;;;;;;;0.32;0.05;;;21.30;88.70;;;;;;5053281;28;20057;-75
2022/07/15 09:12:09;;;;;;;0.52;0.00;;;21.70;88.60;;;;;;5054033;28;20021;-75
2022/07/15 09:14:38;;;;;;;0.20;0.00;;;21.90;86.90;;;;;;5053316;28;20393;-75
2022/07/15 09:17:21;;;;;;;1.08;0.00;;;22.00;84.40;;;;;;5052082;28;20013;-75
2022/07/15 09:20:01;;;;;;;0.57;0.00;;;22.00;80.10;;;;;;5053299;28;20029;-75
2022/07/15 09:22:30;;;;;;;0.50;0.20;;;21.80;81.00;;;;;;5053876;28;20021;-75
2022/07/15 09:25:07;;;;;;;1.45;0.00;;;21.70;83.90;;;;;;5051987;28;20017;-75
2022/07/15 09:27:37;;;;;;;1.45;0.00;;;21.80;81.40;;;;;;5053608;28;20021;-75
2022/07/15 09:36:22;;;;;;;2.35;0.00;;;22.60;76.60;;;;;;5053744;28;20500;-75
2022/07/15 09:39:01;;;;;;;1.05;0.22;;;22.70;79.60;;;;;;5049979;28;20437;-75
2022/07/15 09:41:31;;;;;;;2.72;0.00;;;23.00;80.50;;;;;;5053124;28;20029;-75
2022/07/15 09:44:06;;;;;;;1.83;0.00;;;23.10;76.20;;;;;;5053073;28;20032;-75
2022/07/15 09:46:47;;;;;;;3.05;0.00;;;23.00;75.20;;;;;;5051857;28;20036;-75
2022/07/15 09:49:15;;;;;;;0.30;0.00;;;23.00;75.60;;;;;;5052976;28;20021;-75
2022/07/15 09:51:45;;;;;;;;;;;23.10;78.50;;;;;;5052116;28;20021;-75
2022/07/15 09:54:14;;;;;;;1.10;0.00;;;23.30;74.80;;;;;;5053097;28;19928;-77
2022/07/15 09:56:40;;;;;;;0.17;0.00;;;23.40;72.50;;;;;;5052953;28;20025;-75
2022/07/15 09:59:08;;;;;;;1.08;0.00;;;23.40;75.60;;;;;;5052846;28;20051;-75
2022/07/15 10:01:34;;;;;;;0.85;0.00;;;23.40;74.50;;;;;;5052950;28;20025;-75
2022/07/15 10:04:01;;;;;;;0.60;0.00;;;23.50;74.60;;;;;;5052864;28;20083;-75
2022/07/15 10:06:28;;;;;;;0.98;0.00;;;23.40;76.20;;;;;;5052994;28;20053;-75
2022/07/15 10:08:54;;;;;;;0.32;0.00;;;23.20;70.10;;;;;;5052725;28;20114;-74
2022/07/15 10:11:20;;;;;;;0.17;0.00;;;23.10;72.20;;;;;;5053325;28;20520;-75
2022/07/15 10:14:08;;;;;;;0.75;0.00;;;23.30;69.90;;;;;;5052959;28;20108;-75
2022/07/15 10:17:01;;;;;;;0.15;0.00;;;23.60;71.60;;;;;;5052764;28;20025;-75
2022/07/15 10:19:40;;;;;;;0.65;0.00;;;23.80;69.40;;;;;;5053055;28;20389;-75
2022/07/15 10:22:20;;;;;;;;;;;23.40;72.00;;;;;;5051796;28;20029;-75
2022/07/15 10:24:55;;;;;;;1.73;0.00;;;23.10;73.40;;;;;;5051362;28;20281;-75
2022/07/15 10:27:57;;;;;;;0.05;0.00;;;22.70;74.50;;;;;;5052630;28;20029;-75
2022/07/15 10:30:24;;;;;;;3.53;0.00;;;22.40;77.20;;;;;;5053179;28;20444;-74
2022/07/15 10:33:10;;;;;;;0.52;0.00;;;22.30;76.70;;;;;;5051562;28;20025;-75
2022/07/15 10:35:47;;;;;;;0.55;0.00;;;22.70;76.60;;;;;;5052640;28;20029;-77
2022/07/15 10:38:29;;;;;;;1.15;0.03;;;23.20;74.60;;;;;;5053123;28;20017;-77
2022/07/15 10:40:59;;;;;;;0.28;0.00;;;23.30;73.90;;;;;;5053576;28;20025;-77
2022/07/15 10:43:50;;;;;;;1.17;0.00;;;23.30;76.00;;;;;;5056064;28;20419;-77
2022/07/15 10:46:16;;;;;;;1.35;0.00;;;23.20;74.90;;;;;;5055978;28;20096;-77
2022/07/15 10:48:50;;;;;;;0.13;0.00;;;23.30;70.40;;;;;;5055803;28;20048;-76
2022/07/15 10:51:37;;;;;;;1.27;0.10;;;23.30;71.40;;;;;;5055925;28;20497;-77
2022/07/15 10:54:11;;;;;;;0.63;0.00;;;23.40;71.70;;;;;;5054264;28;20555;-77
2022/07/15 10:56:41;;;;;;;3.63;0.00;;;23.40;72.50;;;;;;5055830;28;20028;-76
2022/07/15 10:59:26;;;;;;;1.05;0.00;;;23.20;74.20;;;;;;5054559;28;20021;-76
2022/07/15 11:02:01;;;;;;;0.60;0.00;;;22.90;75.60;;;;;;5057580;28;20121;-78
2022/07/15 11:04:31;;;;;;;2.45;0.00;;;23.00;75.70;;;;;;5057368;28;20017;-77
2022/07/15 11:07:03;;;;;;;0.47;0.00;;;23.40;73.40;;;;;;5057225;28;20023;-76
2022/07/15 11:10:06;;;;;;;1.75;0.00;;;24.20;73.30;;;;;;5054268;28;20017;-77
2022/07/15 11:12:32;;;;;;;0.00;0.00;;;24.60;67.40;;;;;;5055583;28;20021;-74
2022/07/15 11:14:59;;;;;;;0.60;0.10;;;24.80;65.20;;;;;;5055693;28;20036;-74
2022/07/15 11:17:43;;;;;;;0.55;0.00;;;24.80;62.80;;;;;;5055520;28;20056;-74
2022/07/15 11:20:15;;;;;;;0.05;0.00;;;24.50;64.50;;;;;;5054015;28;20017;-74
2022/07/15 11:22:43;;;;;;;0.57;0.00;;;24.40;67.10;;;;;;5055429;28;20486;-75
2022/07/15 11:25:21;;;;;;;0.10;0.10;;;24.30;67.90;;;;;;5055265;28;20032;-74
2022/07/15 11:28:07;;;;;;;0.32;0.00;;;24.30;68.20;;;;;;5055284;28;20027;-74
2022/07/15 11:30:47;;;;;;;4.20;0.45;;;24.10;66.90;;;;;;5055235;28;20414;-76
2022/07/15 11:33:15;;;;;;;1.60;0.00;;;24.00;68.60;;;;;;5053531;28;20025;-74
2022/07/15 11:35:47;;;;;;;1.88;0.00;;;23.80;70.10;;;;;;5055048;28;20032;-74
2022/07/15 11:38:13;;;;;;;0.13;0.05;;;23.50;70.90;;;;;;5055482;28;20389;-75
2022/07/15 11:46:13;;;;;;;0.95;0.00;;;23.00;73.90;;;;;;5055502;28;20032;-75
2022/07/15 11:48:40;;;;;;;0.50;0.10;;;23.10;75.00;;;;;;5054637;28;20436;-75
2022/07/15 11:51:09;;;;;;;0.68;0.10;;;23.30;69.80;;;;;;5054487;28;20409;-76
2022/07/15 11:53:41;;;;;;;0.65;0.00;;;23.60;72.70;;;;;;5054949;28;20017;-76
2022/07/15 11:56:09;;;;;;;0.00;0.00;;;23.60;69.70;;;;;;5055269;28;20043;-75
2022/07/15 11:58:37;;;;;;;0.00;0.00;;;23.60;70.40;;;;;;5053376;28;20425;-75
2022/07/15 12:01:06;;;;;;;0.38;0.00;;;23.50;70.90;;;;;;5053597;28;20020;-75
2022/07/15 12:03:52;;;;;;;0.00;0.00;;;23.40;70.00;;;;;;5052700;28;20025;-75
2022/07/15 12:06:21;;;;;;;0.30;0.00;;;23.30;72.00;;;;;;5054578;28;20047;-76
2022/07/15 12:08:54;;;;;;;0.57;0.00;;;23.10;72.20;;;;;;5051927;28;20016;-76
2022/07/15 12:11:30;;;;;;;1.60;0.00;;;23.10;72.00;;;;;;5048151;28;20029;-75
2022/07/15 12:14:05;;;;;;;0.20;0.00;;;23.20;68.60;;;;;;5044402;28;20018;-76
2022/07/15 12:16:32;;;;;;;2.45;0.20;;;23.30;72.80;;;;;;5037773;28;20037;-77
2022/07/15 12:19:01;;;;;;;1.23;0.00;;;23.30;70.00;;;;;;5037697;28;20356;-77
2022/07/15 12:21:27;;;;;;;1.05;0.00;;;23.40;72.60;;;;;;5038454;28;20387;-77
2022/07/15 12:24:02;;;;;;;3.45;0.22;;;23.40;73.60;;;;;;5051823;28;20040;-77
2022/07/15 12:26:28;;;;;;;0.38;0.00;;;23.90;72.40;;;;;;5054191;28;20090;-77
2022/07/15 12:28:59;;;;;;;0.77;0.00;;;24.20;69.90;;;;;;5053581;28;20075;-77
2022/07/15 12:31:31;;;;;;;1.20;0.00;;;24.20;70.00;;;;;;5037486;28;20501;-77
2022/07/15 12:34:00;;;;;;;0.57;0.10;;;24.10;68.90;;;;;;5052475;28;20033;-77
2022/07/15 12:36:29;;;;;;;0.43;0.00;;;23.90;69.20;;;;;;5054230;28;20095;-79
2022/07/15 12:39:16;;;;;;;0.57;0.00;;;23.70;69.90;;;;;;5055837;28;20021;-78
2022/07/15 12:41:43;;;;;;;0.75;0.00;;;23.40;70.90;;;;;;5059253;28;20025;-75
2022/07/15 12:44:10;;;;;;;0.95;0.00;;;23.50;71.30;;;;;;5053728;28;20025;-75
2022/07/15 12:46:55;;;;;;;0.10;0.00;;;23.80;72.20;;;;;;5054267;28;20477;-75
2022/07/15 12:49:52;;;;;;;1.77;0.08;;;24.60;72.90;;;;;;5054083;28;20020;-75
2022/07/15 12:52:38;;;;;;;5.13;0.00;;;25.40;69.00;;;;;;5053793;28;20048;-77
2022/07/15 12:55:16;;;;;;;0.88;0.00;;;25.60;67.30;;;;;;5053738;28;20024;-75
2022/07/15 12:57:42;;;;;;;1.20;0.00;;;25.50;66.80;;;;;;5053669;28;20092;-75
2022/07/15 13:00:12;;;;;;;27.20;1.02;;;25.30;66.70;;;;;;5053673;28;20021;-75
2022/07/15 13:03:05;;;;;;;1.95;0.00;;;25.00;67.80;;;;;;5052753;28;20070;-75
2022/07/15 13:05:39;;;;;;;3.00;0.22;;;25.10;68.10;;;;;;5052955;28;20123;-77
2022/07/15 13:08:10;;;;;;;0.22;0.00;;;25.50;66.60;;;;;;5052417;28;20037;-76
2022/07/15 13:10:36;;;;;;;0.63;0.00;;;25.90;67.00;;;;;;5053292;28;20476;-76
2022/07/15 13:13:03;;;;;;;0.20;0.00;;;26.60;65.80;;;;;;5053437;28;20078;-75